sensor_id;sensor_type;location;lat;lon;timestamp;pressure;altitude;pressure_sealevel;temperature;humidity
26775;BME280;14362;51.902;7.626;2023-04-26T00:03:43;101215.69;;;4.20;100.00
26775;BME280;14362;51.902;7.626;2023-04-26T00:07:45;101218.47;;;4.15;100.00
26775;BME280;14362;51.902;7.626;2023-04-26T00:11:49;101219.53;;;4.09;100.00
26775;BME280;14362;51.902;7.626;2023-04-26T00:15:52;101217.84;;;4.03;100.00
26775;BME280;14362;51.902;7.626;2023-04-26T00:19:53;101222.53;;;4.03;100.00
26775;BME280;14362;51.902;7.626;2023-04-26T00:23:56;101230.56;;;4.09;100.00
26775;BME280;14362;51.902;7.626;2023-04-26T00:27:58;101217.91;;;4.13;100.00
26775;BME280;14362;51.902;7.626;2023-04-26T00:32:00;101217.59;;;4.09;100.00
26775;BME280;14362;51.902;7.626;2023-04-26T00:36:02;101217.59;;;4.09;100.00
26775;BME280;14362;51.902;7.626;2023-04-26T00:40:04;101215.09;;;4.08;100.00
26775;BME280;14362;51.902;7.626;2023-04-26T00:44:06;101210.09;;;4.00;100.00
26775;BME280;14362;51.902;7.626;2023-04-26T00:48:09;101212.00;;;3.95;100.00
26775;BME280;14362;51.902;7.626;2023-04-26T00:52:11;101196.25;;;3.85;100.00
26775;BME280;14362;51.902;7.626;2023-04-26T00:56:13;101195.41;;;3.80;100.00
26775;BME280;14362;51.902;7.626;2023-04-26T01:00:16;101201.75;;;3.75;100.00
26775;BME280;14362;51.902;7.626;2023-04-26T01:04:19;101211.06;;;3.69;100.00
26775;BME280;14362;51.902;7.626;2023-04-26T01:08:24;101208.03;;;3.66;100.00
26775;BME280;14362;51.902;7.626;2023-04-26T01:12:26;101206.06;;;3.61;100.00
26775;BME280;14362;51.902;7.626;2023-04-26T01:16:28;101208.81;;;3.61;100.00
26775;BME280;14362;51.902;7.626;2023-04-26T01:20:31;101217.63;;;3.58;100.00
26775;BME280;14362;51.902;7.626;2023-04-26T01:24:35;101218.16;;;3.55;100.00
26775;BME280;14362;51.902;7.626;2023-04-26T01:28:36;101218.41;;;3.49;100.00
26775;BME280;14362;51.902;7.626;2023-04-26T01:32:38;101219.78;;;3.51;100.00
26775;BME280;14362;51.902;7.626;2023-04-26T01:36:39;101213.44;;;3.51;100.00
26775;BME280;14362;51.902;7.626;2023-04-26T01:40:42;101225.00;;;3.48;100.00
26775;BME280;14362;51.902;7.626;2023-04-26T01:44:45;101216.16;;;3.41;100.00
26775;BME280;14362;51.902;7.626;2023-04-26T01:48:46;101211.41;;;3.31;100.00
26775;BME280;14362;51.902;7.626;2023-04-26T01:52:48;101216.56;;;3.23;100.00
26775;BME280;14362;51.902;7.626;2023-04-26T01:56:50;101219.63;;;3.26;100.00
26775;BME280;14362;51.902;7.626;2023-04-26T02:00:52;101217.97;;;3.25;100.00
26775;BME280;14362;51.902;7.626;2023-04-26T02:04:53;101228.97;;;3.25;100.00
26775;BME280;14362;51.902;7.626;2023-04-26T02:08:55;101226.22;;;3.20;100.00
26775;BME280;14362;51.902;7.626;2023-04-26T02:12:57;101227.84;;;3.21;100.00
26775;BME280;14362;51.902;7.626;2023-04-26T02:16:59;101218.81;;;3.26;100.00
26775;BME280;14362;51.902;7.626;2023-04-26T02:21:00;101223.41;;;3.15;100.00
26775;BME280;14362;51.902;7.626;2023-04-26T02:25:02;101223.41;;;3.15;100.00
26775;BME280;14362;51.902;7.626;2023-04-26T02:29:05;101223.66;;;3.14;100.00
26775;BME280;14362;51.902;7.626;2023-04-26T02:33:07;101221.44;;;3.11;100.00
26775;BME280;14362;51.902;7.626;2023-04-26T02:37:08;101239.00;;;3.05;100.00
26775;BME280;14362;51.902;7.626;2023-04-26T02:41:10;101229.38;;;3.07;100.00
26775;BME280;14362;51.902;7.626;2023-04-26T02:45:13;101227.72;;;3.06;100.00
26775;BME280;14362;51.902;7.626;2023-04-26T02:49:15;101229.38;;;3.07;100.00
26775;BME280;14362;51.902;7.626;2023-04-26T02:53:16;101222.50;;;3.05;100.00
26775;BME280;14362;51.902;7.626;2023-04-26T02:57:18;101229.34;;;3.02;100.00
26775;BME280;14362;51.902;7.626;2023-04-26T03:01:20;101222.97;;;2.97;100.00
26775;BME280;14362;51.902;7.626;2023-04-26T03:05:22;101221.28;;;2.91;100.00
26775;BME280;14362;51.902;7.626;2023-04-26T03:09:24;101222.41;;;2.95;100.00
26775;BME280;14362;51.902;7.626;2023-04-26T03:13:26;101224.59;;;2.93;100.00
26775;BME280;14362;51.902;7.626;2023-04-26T03:17:29;101229.53;;;2.91;100.00
26775;BME280;14362;51.902;7.626;2023-04-26T03:21:30;101222.91;;;2.87;100.00
26775;BME280;14362;51.902;7.626;2023-04-26T03:25:32;101226.97;;;2.80;100.00
26775;BME280;14362;51.902;7.626;2023-04-26T03:29:33;101222.03;;;2.82;100.00
26775;BME280;14362;51.902;7.626;2023-04-26T03:33:39;101217.81;;;2.74;100.00
26775;BME280;14362;51.902;7.626;2023-04-26T03:37:41;101231.31;;;2.76;100.00
26775;BME280;14362;51.902;7.626;2023-04-26T03:41:42;101221.09;;;2.71;100.00
26775;BME280;14362;51.902;7.626;2023-04-26T03:45:46;101218.88;;;2.68;100.00
26775;BME280;14362;51.902;7.626;2023-04-26T03:49:49;101222.09;;;2.60;100.00
26775;BME280;14362;51.902;7.626;2023-04-26T03:53:50;101224.31;;;2.63;100.00
26775;BME280;14362;51.902;7.626;2023-04-26T03:57:52;101219.09;;;2.62;100.00
26775;BME280;14362;51.902;7.626;2023-04-26T04:01:54;101214.41;;;2.62;100.00
26775;BME280;14362;51.902;7.626;2023-04-26T04:05:56;101215.19;;;2.58;100.00
26775;BME280;14362;51.902;7.626;2023-04-26T04:09:59;101222.34;;;2.59;100.00
26775;BME280;14362;51.902;7.626;2023-04-26T04:14:01;101220.44;;;2.59;100.00
26775;BME280;14362;51.902;7.626;2023-04-26T04:18:03;101209.69;;;2.58;100.00
26775;BME280;14362;51.902;7.626;2023-04-26T04:22:05;101222.97;;;2.66;100.00
26775;BME280;14362;51.902;7.626;2023-04-26T04:26:07;101216.06;;;2.63;100.00
26775;BME280;14362;51.902;7.626;2023-04-26T04:30:09;101211.94;;;2.66;100.00
26775;BME280;14362;51.902;7.626;2023-04-26T04:34:11;101214.97;;;2.64;100.00
26775;BME280;14362;51.902;7.626;2023-04-26T04:38:14;101220.78;;;2.68;100.00
26775;BME280;14362;51.902;7.626;2023-04-26T04:42:16;101223.31;;;2.74;100.00
26775;BME280;14362;51.902;7.626;2023-04-26T04:46:18;101224.78;;;2.82;100.00
26775;BME280;14362;51.902;7.626;2023-04-26T04:50:21;101230.63;;;2.90;100.00
26775;BME280;14362;51.902;7.626;2023-04-26T04:54:23;101233.16;;;2.97;100.00
26775;BME280;14362;51.902;7.626;2023-04-26T04:58:25;101231.28;;;3.02;100.00
26775;BME280;14362;51.902;7.626;2023-04-26T05:02:26;101229.72;;;3.11;100.00
26775;BME280;14362;51.902;7.626;2023-04-26T05:06:28;101231.66;;;3.15;100.00
26775;BME280;14362;51.902;7.626;2023-04-26T05:10:33;101229.59;;;3.32;100.00
26775;BME280;14362;51.902;7.626;2023-04-26T05:14:35;101231.81;;;3.40;100.00
26775;BME280;14362;51.902;7.626;2023-04-26T05:18:36;101226.69;;;3.49;100.00
26775;BME280;14362;51.902;7.626;2023-04-26T05:22:37;101230.28;;;3.54;100.00
26775;BME280;14362;51.902;7.626;2023-04-26T05:26:40;101238.91;;;3.68;100.00
26775;BME280;14362;51.902;7.626;2023-04-26T05:30:42;101236.44;;;3.71;100.00
26775;BME280;14362;51.902;7.626;2023-04-26T05:34:43;101245.84;;;3.75;100.00
26775;BME280;14362;51.902;7.626;2023-04-26T05:38:45;101246.41;;;3.77;100.00
26775;BME280;14362;51.902;7.626;2023-04-26T05:42:48;101257.47;;;3.87;100.00
26775;BME280;14362;51.902;7.626;2023-04-26T05:46:50;101264.94;;;3.92;100.00
26775;BME280;14362;51.902;7.626;2023-04-26T05:50:51;101259.22;;;4.03;100.00
26775;BME280;14362;51.902;7.626;2023-04-26T05:54:53;101264.31;;;4.36;100.00
26775;BME280;14362;51.902;7.626;2023-04-26T05:58:56;101264.94;;;4.73;100.00
26775;BME280;14362;51.902;7.626;2023-04-26T06:02:58;101268.28;;;4.80;100.00
26775;BME280;14362;51.902;7.626;2023-04-26T06:06:59;101275.75;;;4.89;100.00
26775;BME280;14362;51.902;7.626;2023-04-26T06:11:00;101280.97;;;4.76;100.00
26775;BME280;14362;51.902;7.626;2023-04-26T06:15:04;101286.50;;;4.66;100.00
26775;BME280;14362;51.902;7.626;2023-04-26T06:19:06;101292.31;;;4.74;100.00
26775;BME280;14362;51.902;7.626;2023-04-26T06:23:08;101278.25;;;4.96;100.00
26775;BME280;14362;51.902;7.626;2023-04-26T06:27:09;101283.25;;;5.18;100.00
26775;BME280;14362;51.902;7.626;2023-04-26T06:31:12;101282.16;;;5.39;100.00
26775;BME280;14362;51.902;7.626;2023-04-26T06:35:13;101285.41;;;5.76;100.00
26775;BME280;14362;51.902;7.626;2023-04-26T06:39:15;101288.13;;;6.11;100.00
26775;BME280;14362;51.902;7.626;2023-04-26T06:43:17;101279.06;;;6.59;100.00
26775;BME280;14362;51.902;7.626;2023-04-26T06:47:20;101284.63;;;7.02;100.00
26775;BME280;14362;51.902;7.626;2023-04-26T06:51:21;101282.66;;;7.41;100.00
26775;BME280;14362;51.902;7.626;2023-04-26T06:55:23;101284.75;;;7.54;100.00
26775;BME280;14362;51.902;7.626;2023-04-26T06:59:24;101291.09;;;7.26;100.00
26775;BME280;14362;51.902;7.626;2023-04-26T07:03:27;101287.75;;;7.57;100.00
26775;BME280;14362;51.902;7.626;2023-04-26T07:07:28;101286.78;;;7.72;100.00
26775;BME280;14362;51.902;7.626;2023-04-26T07:11:30;101286.78;;;8.00;100.00
26775;BME280;14362;51.902;7.626;2023-04-26T07:15:32;101292.56;;;8.04;100.00
26775;BME280;14362;51.902;7.626;2023-04-26T07:19:36;101292.66;;;7.94;100.00
26775;BME280;14362;51.902;7.626;2023-04-26T07:23:38;101291.94;;;7.83;100.00
26775;BME280;14362;51.902;7.626;2023-04-26T07:27:39;101289.16;;;7.83;100.00
26775;BME280;14362;51.902;7.626;2023-04-26T07:31:41;101284.31;;;7.99;100.00
26775;BME280;14362;51.902;7.626;2023-04-26T07:35:44;101286.38;;;8.35;100.00
26775;BME280;14362;51.902;7.626;2023-04-26T07:39:53;101279.66;;;8.41;100.00
26775;BME280;14362;51.902;7.626;2023-04-26T07:43:54;101286.28;;;8.45;100.00
26775;BME280;14362;51.902;7.626;2023-04-26T07:47:56;101286.72;;;8.52;100.00
26775;BME280;14362;51.902;7.626;2023-04-26T07:51:59;101290.28;;;8.57;100.00
26775;BME280;14362;51.902;7.626;2023-04-26T07:56:03;101288.22;;;8.44;100.00
26775;BME280;14362;51.902;7.626;2023-04-26T08:00:06;101291.50;;;8.28;100.00
26775;BME280;14362;51.902;7.626;2023-04-26T08:04:09;101291.75;;;8.50;100.00
26775;BME280;14362;51.902;7.626;2023-04-26T08:08:11;101288.75;;;8.23;100.00
26775;BME280;14362;51.902;7.626;2023-04-26T08:12:13;101287.50;;;8.34;100.00
26775;BME280;14362;51.902;7.626;2023-04-26T08:16:15;101282.66;;;8.44;100.00
26775;BME280;14362;51.902;7.626;2023-04-26T08:20:16;101286.53;;;8.67;100.00
26775;BME280;14362;51.902;7.626;2023-04-26T08:24:19;101278.66;;;8.74;100.00
26775;BME280;14362;51.902;7.626;2023-04-26T08:28:20;101282.53;;;8.54;100.00
26775;BME280;14362;51.902;7.626;2023-04-26T08:32:22;101283.72;;;8.48;100.00
26775;BME280;14362;51.902;7.626;2023-04-26T08:36:23;101281.59;;;8.40;100.00
26775;BME280;14362;51.902;7.626;2023-04-26T08:40:26;101284.56;;;8.25;100.00
26775;BME280;14362;51.902;7.626;2023-04-26T08:44:28;101287.66;;;8.24;100.00
26775;BME280;14362;51.902;7.626;2023-04-26T08:48:35;101292.56;;;8.04;100.00
26775;BME280;14362;51.902;7.626;2023-04-26T08:52:38;101281.56;;;7.94;100.00
26775;BME280;14362;51.902;7.626;2023-04-26T08:56:41;101294.56;;;7.98;100.00
26775;BME280;14362;51.902;7.626;2023-04-26T09:00:43;101286.38;;;8.11;100.00
26775;BME280;14362;51.902;7.626;2023-04-26T09:04:45;101295.44;;;8.22;100.00
26775;BME280;14362;51.902;7.626;2023-04-26T09:08:47;101303.94;;;8.30;100.00
26775;BME280;14362;51.902;7.626;2023-04-26T09:12:52;101294.34;;;8.41;100.00
26775;BME280;14362;51.902;7.626;2023-04-26T09:16:53;101297.44;;;8.40;100.00
26775;BME280;14362;51.902;7.626;2023-04-26T09:21:03;101303.28;;;8.62;100.00
26775;BME280;14362;51.902;7.626;2023-04-26T09:25:06;101295.47;;;8.64;100.00
26775;BME280;14362;51.902;7.626;2023-04-26T09:29:13;101295.25;;;8.79;100.00
26775;BME280;14362;51.902;7.626;2023-04-26T09:33:15;101302.31;;;8.90;100.00
26775;BME280;14362;51.902;7.626;2023-04-26T09:37:18;101301.50;;;9.26;100.00
26775;BME280;14362;51.902;7.626;2023-04-26T09:41:20;101298.06;;;9.34;98.08
26775;BME280;14362;51.902;7.626;2023-04-26T09:45:22;101294.94;;;9.35;92.05
26775;BME280;14362;51.902;7.626;2023-04-26T09:49:25;101292.34;;;9.57;87.88
26775;BME280;14362;51.902;7.626;2023-04-26T09:53:28;101291.41;;;9.80;84.72
26775;BME280;14362;51.902;7.626;2023-04-26T09:57:30;101290.34;;;9.76;89.62
26775;BME280;14362;51.902;7.626;2023-04-26T10:01:33;101297.56;;;9.77;87.99
26775;BME280;14362;51.902;7.626;2023-04-26T10:05:35;101295.22;;;9.52;77.58
26775;BME280;14362;51.902;7.626;2023-04-26T10:09:37;101280.06;;;9.26;73.95
26775;BME280;14362;51.902;7.626;2023-04-26T10:13:40;101295.34;;;9.29;76.05
26775;BME280;14362;51.902;7.626;2023-04-26T10:17:45;101292.03;;;9.27;75.24
26775;BME280;14362;51.902;7.626;2023-04-26T10:21:47;101286.13;;;9.47;80.74
26775;BME280;14362;51.902;7.626;2023-04-26T10:25:50;101285.03;;;9.29;75.89
26775;BME280;14362;51.902;7.626;2023-04-26T10:30:06;101278.06;;;9.32;73.82
26775;BME280;14362;51.902;7.626;2023-04-26T10:34:19;101276.13;;;9.14;74.18
26775;BME280;14362;51.902;7.626;2023-04-26T10:38:21;101269.31;;;9.38;77.19
26775;BME280;14362;51.902;7.626;2023-04-26T10:42:24;101267.19;;;9.49;77.07
26775;BME280;14362;51.902;7.626;2023-04-26T10:46:37;101269.69;;;9.64;85.08
26775;BME280;14362;51.902;7.626;2023-04-26T10:51:10;101261.19;;;9.87;87.45
26775;BME280;14362;51.902;7.626;2023-04-26T10:55:37;101262.63;;;9.85;76.89
26775;BME280;14362;51.902;7.626;2023-04-26T10:59:38;101254.53;;;10.02;73.64
26775;BME280;14362;51.902;7.626;2023-04-26T11:03:40;101257.44;;;10.37;70.99
26775;BME280;14362;51.902;7.626;2023-04-26T11:07:43;101254.75;;;10.32;65.20
26775;BME280;14362;51.902;7.626;2023-04-26T11:11:51;101252.69;;;10.24;65.60
26775;BME280;14362;51.902;7.626;2023-04-26T11:15:59;101251.44;;;10.30;69.36
26775;BME280;14362;51.902;7.626;2023-04-26T11:20:04;101255.16;;;10.12;67.71
26775;BME280;14362;51.902;7.626;2023-04-26T11:24:13;101250.41;;;9.99;68.92
26775;BME280;14362;51.902;7.626;2023-04-26T11:28:18;101245.31;;;9.88;69.68
26775;BME280;14362;51.902;7.626;2023-04-26T11:32:19;101258.47;;;9.69;70.62
26775;BME280;14362;51.902;7.626;2023-04-26T11:36:21;101256.09;;;9.76;70.15
26775;BME280;14362;51.902;7.626;2023-04-26T11:40:26;101260.47;;;9.82;68.30
26775;BME280;14362;51.902;7.626;2023-04-26T11:44:28;101259.44;;;9.91;66.99
26775;BME280;14362;51.902;7.626;2023-04-26T11:48:30;101252.38;;;10.12;67.08
26775;BME280;14362;51.902;7.626;2023-04-26T11:52:32;101252.91;;;10.27;64.83
26775;BME280;14362;51.902;7.626;2023-04-26T11:56:35;101249.06;;;10.50;66.50
26775;BME280;14362;51.902;7.626;2023-04-26T12:00:37;101257.72;;;10.49;61.99
26775;BME280;14362;51.902;7.626;2023-04-26T12:04:57;101271.16;;;10.47;61.26
26775;BME280;14362;51.902;7.626;2023-04-26T12:09:01;101262.69;;;10.38;58.29
26775;BME280;14362;51.902;7.626;2023-04-26T12:13:05;101266.50;;;10.16;59.84
26775;BME280;14362;51.902;7.626;2023-04-26T12:17:08;101264.59;;;9.98;60.89
26775;BME280;14362;51.902;7.626;2023-04-26T12:21:09;101258.91;;;9.89;64.30
26775;BME280;14362;51.902;7.626;2023-04-26T12:25:11;101273.72;;;9.71;64.28
26775;BME280;14362;51.902;7.626;2023-04-26T12:29:13;101272.47;;;9.64;67.21
26775;BME280;14362;51.902;7.626;2023-04-26T12:33:15;101278.25;;;9.67;68.99
26775;BME280;14362;51.902;7.626;2023-04-26T12:37:18;101281.34;;;9.34;70.66
26775;BME280;14362;51.902;7.626;2023-04-26T12:41:20;101279.56;;;9.24;74.75
26775;BME280;14362;51.902;7.626;2023-04-26T12:45:24;101276.16;;;9.27;78.47
26775;BME280;14362;51.902;7.626;2023-04-26T12:49:26;101278.94;;;9.27;80.67
26775;BME280;14362;51.902;7.626;2023-04-26T12:53:28;101281.38;;;9.15;80.48
26775;BME280;14362;51.902;7.626;2023-04-26T12:57:30;101277.91;;;9.05;82.77
26775;BME280;14362;51.902;7.626;2023-04-26T13:01:33;101285.72;;;9.03;84.94
26775;BME280;14362;51.902;7.626;2023-04-26T13:05:34;101279.63;;;9.01;87.59
26775;BME280;14362;51.902;7.626;2023-04-26T13:09:35;101280.03;;;9.13;88.87
26775;BME280;14362;51.902;7.626;2023-04-26T13:13:38;101280.59;;;8.92;88.95
26775;BME280;14362;51.902;7.626;2023-04-26T13:17:41;101272.66;;;9.04;91.21
26775;BME280;14362;51.902;7.626;2023-04-26T13:21:43;101276.84;;;9.19;94.39
26775;BME280;14362;51.902;7.626;2023-04-26T13:25:45;101271.03;;;9.34;97.38
26775;BME280;14362;51.902;7.626;2023-04-26T13:29:46;101280.97;;;9.22;88.57
26775;BME280;14362;51.902;7.626;2023-04-26T13:33:49;101286.88;;;9.52;88.58
26775;BME280;14362;51.902;7.626;2023-04-26T13:37:52;101282.16;;;9.66;87.54
26775;BME280;14362;51.902;7.626;2023-04-26T13:41:53;101275.81;;;9.93;84.96
26775;BME280;14362;51.902;7.626;2023-04-26T13:45:55;101277.13;;;10.14;84.12
26775;BME280;14362;51.902;7.626;2023-04-26T13:49:57;101291.78;;;10.32;73.97
26775;BME280;14362;51.902;7.626;2023-04-26T13:53:59;101283.53;;;10.54;72.50
26775;BME280;14362;51.902;7.626;2023-04-26T13:58:00;101270.41;;;10.68;70.95
26775;BME280;14362;51.902;7.626;2023-04-26T14:02:05;101276.44;;;10.97;66.26
26775;BME280;14362;51.902;7.626;2023-04-26T14:06:08;101267.66;;;10.90;68.32
26775;BME280;14362;51.902;7.626;2023-04-26T14:10:10;101278.03;;;10.76;65.19
26775;BME280;14362;51.902;7.626;2023-04-26T14:14:12;101271.25;;;10.69;64.02
26775;BME280;14362;51.902;7.626;2023-04-26T14:18:13;101260.97;;;10.78;65.82
26775;BME280;14362;51.902;7.626;2023-04-26T14:22:16;101262.34;;;10.80;61.67
26775;BME280;14362;51.902;7.626;2023-04-26T14:26:18;101272.53;;;10.85;62.12
26775;BME280;14362;51.902;7.626;2023-04-26T14:30:20;101269.59;;;10.68;59.58
26775;BME280;14362;51.902;7.626;2023-04-26T14:34:23;101254.41;;;10.74;62.06
26775;BME280;14362;51.902;7.626;2023-04-26T14:38:26;101266.69;;;10.73;62.67
26775;BME280;14362;51.902;7.626;2023-04-26T14:42:28;101266.28;;;10.52;60.83
26775;BME280;14362;51.902;7.626;2023-04-26T14:46:29;101259.06;;;10.38;60.75
26775;BME280;14362;51.902;7.626;2023-04-26T14:50:31;101258.63;;;10.58;63.04
26775;BME280;14362;51.902;7.626;2023-04-26T14:54:37;101262.47;;;10.62;64.05
26775;BME280;14362;51.902;7.626;2023-04-26T14:58:38;101251.19;;;10.67;59.17
26775;BME280;14362;51.902;7.626;2023-04-26T15:02:40;101256.75;;;10.80;63.58
26775;BME280;14362;51.902;7.626;2023-04-26T15:06:41;101258.25;;;10.51;58.78
26775;BME280;14362;51.902;7.626;2023-04-26T15:10:44;101255.75;;;10.63;60.40
26775;BME280;14362;51.902;7.626;2023-04-26T15:14:46;101256.25;;;10.65;60.74
26775;BME280;14362;51.902;7.626;2023-04-26T15:18:47;101241.38;;;10.69;58.92
26775;BME280;14362;51.902;7.626;2023-04-26T15:22:48;101250.00;;;10.95;65.01
26775;BME280;14362;51.902;7.626;2023-04-26T15:26:51;101244.00;;;11.23;65.88
26775;BME280;14362;51.902;7.626;2023-04-26T15:31:00;101237.59;;;11.44;61.85
26775;BME280;14362;51.902;7.626;2023-04-26T15:35:01;101244.00;;;11.45;59.48
26775;BME280;14362;51.902;7.626;2023-04-26T15:39:04;101242.69;;;11.42;63.01
26775;BME280;14362;51.902;7.626;2023-04-26T15:43:11;101240.38;;;11.01;56.94
26775;BME280;14362;51.902;7.626;2023-04-26T15:47:12;101245.22;;;11.09;58.60
26775;BME280;14362;51.902;7.626;2023-04-26T15:51:14;101245.84;;;11.06;61.64
26775;BME280;14362;51.902;7.626;2023-04-26T15:55:15;101228.47;;;11.09;62.63
26775;BME280;14362;51.902;7.626;2023-04-26T15:59:18;101235.19;;;11.08;61.56
26775;BME280;14362;51.902;7.626;2023-04-26T16:03:20;101240.00;;;10.94;61.74
26775;BME280;14362;51.902;7.626;2023-04-26T16:07:22;101231.22;;;10.87;63.63
26775;BME280;14362;51.902;7.626;2023-04-26T16:11:23;101231.25;;;10.73;63.16
26775;BME280;14362;51.902;7.626;2023-04-26T16:15:26;101239.72;;;10.68;64.15
26775;BME280;14362;51.902;7.626;2023-04-26T16:19:28;101246.88;;;10.61;63.84
26775;BME280;14362;51.902;7.626;2023-04-26T16:23:29;101243.19;;;10.52;64.01
26775;BME280;14362;51.902;7.626;2023-04-26T16:27:31;101239.78;;;10.41;64.80
26775;BME280;14362;51.902;7.626;2023-04-26T16:31:34;101237.00;;;10.28;63.91
26775;BME280;14362;51.902;7.626;2023-04-26T16:35:35;101236.38;;;10.18;63.70
26775;BME280;14362;51.902;7.626;2023-04-26T16:39:37;101245.88;;;10.17;66.37
26775;BME280;14362;51.902;7.626;2023-04-26T16:43:38;101244.13;;;10.07;69.56
26775;BME280;14362;51.902;7.626;2023-04-26T16:47:41;101241.94;;;10.04;72.81
26775;BME280;14362;51.902;7.626;2023-04-26T16:51:42;101244.53;;;10.01;74.67
26775;BME280;14362;51.902;7.626;2023-04-26T16:55:50;101243.97;;;9.99;76.73
26775;BME280;14362;51.902;7.626;2023-04-26T16:59:52;101250.56;;;9.89;78.20
26775;BME280;14362;51.902;7.626;2023-04-26T17:03:54;101251.59;;;9.93;82.57
26775;BME280;14362;51.902;7.626;2023-04-26T17:07:56;101254.28;;;9.85;79.51
26775;BME280;14362;51.902;7.626;2023-04-26T17:11:57;101257.22;;;9.75;81.14
26775;BME280;14362;51.902;7.626;2023-04-26T17:15:59;101263.44;;;9.72;80.86
26775;BME280;14362;51.902;7.626;2023-04-26T17:20:02;101265.06;;;9.73;85.27
26775;BME280;14362;51.902;7.626;2023-04-26T17:24:06;101262.69;;;9.66;81.11
26775;BME280;14362;51.902;7.626;2023-04-26T17:28:07;101257.34;;;9.70;83.94
26775;BME280;14362;51.902;7.626;2023-04-26T17:32:09;101257.63;;;9.68;85.95
26775;BME280;14362;51.902;7.626;2023-04-26T17:36:12;101259.63;;;9.68;86.72
26775;BME280;14362;51.902;7.626;2023-04-26T17:40:13;101264.75;;;9.61;85.44
26775;BME280;14362;51.902;7.626;2023-04-26T17:44:15;101266.59;;;9.52;85.19
26775;BME280;14362;51.902;7.626;2023-04-26T17:48:17;101259.88;;;9.53;88.99
26775;BME280;14362;51.902;7.626;2023-04-26T17:52:20;101261.16;;;9.42;86.31
26775;BME280;14362;51.902;7.626;2023-04-26T17:56:21;101259.72;;;9.31;82.66
26775;BME280;14362;51.902;7.626;2023-04-26T18:00:23;101256.94;;;9.31;87.45
26775;BME280;14362;51.902;7.626;2023-04-26T18:04:24;101257.22;;;9.29;93.20
26775;BME280;14362;51.902;7.626;2023-04-26T18:08:27;101259.63;;;9.17;93.79
26775;BME280;14362;51.902;7.626;2023-04-26T18:12:28;101263.03;;;9.14;91.78
26775;BME280;14362;51.902;7.626;2023-04-26T18:16:31;101268.91;;;9.13;96.41
26775;BME280;14362;51.902;7.626;2023-04-26T18:20:34;101271.75;;;9.08;97.33
26775;BME280;14362;51.902;7.626;2023-04-26T18:24:37;101272.66;;;9.04;98.98
26775;BME280;14362;51.902;7.626;2023-04-26T18:28:38;101274.44;;;8.95;92.50
26775;BME280;14362;51.902;7.626;2023-04-26T18:32:40;101273.13;;;8.92;94.80
26775;BME280;14362;51.902;7.626;2023-04-26T18:36:41;101277.94;;;8.87;98.38
26775;BME280;14362;51.902;7.626;2023-04-26T18:40:44;101274.69;;;8.80;100.00
26775;BME280;14362;51.902;7.626;2023-04-26T18:44:46;101286.44;;;8.72;100.00
26775;BME280;14362;51.902;7.626;2023-04-26T18:48:48;101279.97;;;8.58;100.00
26775;BME280;14362;51.902;7.626;2023-04-26T18:52:49;101289.81;;;8.50;100.00
26775;BME280;14362;51.902;7.626;2023-04-26T18:56:52;101295.25;;;8.37;100.00
26775;BME280;14362;51.902;7.626;2023-04-26T19:00:54;101289.31;;;8.25;100.00
26775;BME280;14362;51.902;7.626;2023-04-26T19:04:55;101292.34;;;8.23;100.00
26775;BME280;14362;51.902;7.626;2023-04-26T19:08:58;101297.47;;;8.16;100.00
26775;BME280;14362;51.902;7.626;2023-04-26T19:13:01;101300.56;;;8.10;100.00
26775;BME280;14362;51.902;7.626;2023-04-26T19:17:02;101300.88;;;8.04;100.00
26775;BME280;14362;51.902;7.626;2023-04-26T19:21:04;101303.25;;;7.92;100.00
26775;BME280;14362;51.902;7.626;2023-04-26T19:25:06;101310.03;;;7.81;100.00
26775;BME280;14362;51.902;7.626;2023-04-26T19:29:09;101315.38;;;7.72;100.00
26775;BME280;14362;51.902;7.626;2023-04-26T19:33:11;101317.06;;;7.68;100.00
26775;BME280;14362;51.902;7.626;2023-04-26T19:37:12;101320.13;;;7.67;100.00
26775;BME280;14362;51.902;7.626;2023-04-26T19:41:14;101314.69;;;7.57;100.00
26775;BME280;14362;51.902;7.626;2023-04-26T19:45:17;101310.25;;;7.56;100.00
26775;BME280;14362;51.902;7.626;2023-04-26T19:49:19;101312.84;;;7.42;100.00
26775;BME280;14362;51.902;7.626;2023-04-26T19:53:21;101312.88;;;7.37;100.00
26775;BME280;14362;51.902;7.626;2023-04-26T19:57:22;101311.81;;;7.33;100.00
26775;BME280;14362;51.902;7.626;2023-04-26T20:01:25;101320.19;;;7.28;100.00
26775;BME280;14362;51.902;7.626;2023-04-26T20:05:27;101320.78;;;7.20;100.00
26775;BME280;14362;51.902;7.626;2023-04-26T20:09:29;101333.03;;;7.14;100.00
26775;BME280;14362;51.902;7.626;2023-04-26T20:13:30;101325.28;;;7.11;100.00
26775;BME280;14362;51.902;7.626;2023-04-26T20:17:33;101330.03;;;7.06;100.00
26775;BME280;14362;51.902;7.626;2023-04-26T20:21:35;101332.28;;;7.04;100.00
26775;BME280;14362;51.902;7.626;2023-04-26T20:25:36;101338.88;;;7.08;100.00
26775;BME280;14362;51.902;7.626;2023-04-26T20:29:37;101341.41;;;7.05;100.00
26775;BME280;14362;51.902;7.626;2023-04-26T20:33:40;101340.03;;;7.02;100.00
26775;BME280;14362;51.902;7.626;2023-04-26T20:37:42;101337.28;;;6.97;100.00
26775;BME280;14362;51.902;7.626;2023-04-26T20:41:43;101343.94;;;7.01;100.00
26775;BME280;14362;51.902;7.626;2023-04-26T20:45:45;101343.13;;;6.96;100.00
26775;BME280;14362;51.902;7.626;2023-04-26T20:49:47;101347.84;;;6.95;100.00
26775;BME280;14362;51.902;7.626;2023-04-26T20:53:49;101345.59;;;6.97;100.00
26775;BME280;14362;51.902;7.626;2023-04-26T20:57:50;101346.75;;;6.91;100.00
26775;BME280;14362;51.902;7.626;2023-04-26T21:01:52;101346.47;;;6.93;100.00
26775;BME280;14362;51.902;7.626;2023-04-26T21:05:55;101347.03;;;6.90;100.00
26775;BME280;14362;51.902;7.626;2023-04-26T21:09:56;101349.25;;;6.88;100.00
26775;BME280;14362;51.902;7.626;2023-04-26T21:13:58;101351.16;;;6.92;100.00